Terminal Aerodrome Forecast
Issued by NWS Memphis, TN

Home | Current Version | Previous Version | Text Only | Print | Product List | Glossary On
Versions: 1 2 3 4 5 6 7 8 9 10 11 12 13 14 15 16 17 18 19
000
FTUS44 KMEG 010521
TAFMKL
TAF
KMKL 010521Z 0106/0206 VRB03KT P6SM SCT250
     FM010900 VRB02KT 4SM BR SCT030 SCT250
     FM011400 23004KT P6SM BKN040 BKN120
     FM011800 26006KT P6SM VCTS BKN050CB
      TEMPO 0123/0201 -TSRA OVC050CB
     FM020200 VRB03KT P6SM VCSH SCT050 BKN120=

USA.gov is the U.S. government's official web portal to all federal, state and local government web resources and services.